createdAt,value
2018-12-27T00:00:45.411Z,15.47
2018-12-27T00:03:12.781Z,15.80
2018-12-27T00:05:40.247Z,14.13
2018-12-27T00:08:07.731Z,12.67
2018-12-27T00:10:35.114Z,14.03
2018-12-27T00:13:02.541Z,13.73
2018-12-27T00:15:29.967Z,14.93
2018-12-27T00:17:57.514Z,12.97
2018-12-27T00:20:24.924Z,14.93
2018-12-27T00:22:52.295Z,12.90
2018-12-27T00:25:20.461Z,13.17
2018-12-27T00:27:48.007Z,12.50
2018-12-27T00:30:15.435Z,14.17
2018-12-27T00:32:42.879Z,13.77
2018-12-27T00:35:10.269Z,15.10
2018-12-27T00:40:38.070Z,14.67
2018-12-27T00:43:05.570Z,18.60
2018-12-27T00:45:33.033Z,14.70
2018-12-27T00:48:00.553Z,14.80
2018-12-27T00:50:27.994Z,19.07
2018-12-27T00:52:55.358Z,21.03
2018-12-27T00:55:22.848Z,14.20
2018-12-27T00:57:50.302Z,15.50
2018-12-27T01:00:17.786Z,16.67
2018-12-27T01:02:45.224Z,14.83
2018-12-27T01:05:12.580Z,15.33
2018-12-27T01:07:39.933Z,19.53
2018-12-27T01:10:07.321Z,14.77
2018-12-27T01:12:34.781Z,13.73
2018-12-27T01:15:02.232Z,18.10
2018-12-27T01:17:29.752Z,17.03
2018-12-27T01:19:57.359Z,16.43
2018-12-27T01:22:25.198Z,19.63
2018-12-27T01:24:52.640Z,20.47
2018-12-27T01:27:20.105Z,16.03
2018-12-27T01:29:47.790Z,17.37
2018-12-27T01:32:15.245Z,16.20
2018-12-27T01:34:47.426Z,14.00
2018-12-27T01:37:14.858Z,34.90
2018-12-27T01:39:42.322Z,31.67
2018-12-27T01:42:09.838Z,38.80
2018-12-27T01:44:38.637Z,22.63
2018-12-27T01:47:06.101Z,22.33
2018-12-27T01:49:33.550Z,17.70
2018-12-27T01:52:00.997Z,24.03
2018-12-27T01:54:28.414Z,13.70
2018-12-27T01:56:55.912Z,21.17
2018-12-27T02:02:18.718Z,24.63
2018-12-27T02:04:46.084Z,16.13
2018-12-27T02:07:13.516Z,21.80
2018-12-27T02:09:40.914Z,13.87
2018-12-27T02:12:08.377Z,22.97
2018-12-27T02:14:35.803Z,18.47
2018-12-27T02:17:03.157Z,17.37
2018-12-27T02:19:30.666Z,19.43
2018-12-27T02:21:58.180Z,18.20
2018-12-27T02:24:25.624Z,22.63
2018-12-27T02:26:52.984Z,19.00
2018-12-27T02:29:20.467Z,17.13
2018-12-27T02:31:47.893Z,19.80
2018-12-27T02:34:15.376Z,22.87
2018-12-27T02:36:42.853Z,13.77
2018-12-27T02:39:12.427Z,14.20
2018-12-27T02:41:39.791Z,18.77
2018-12-27T02:44:11.736Z,13.73
2018-12-27T02:46:39.120Z,13.53
2018-12-27T02:49:06.473Z,11.77
2018-12-27T02:51:39.238Z,14.87
2018-12-27T02:54:06.693Z,18.90
2018-12-27T02:56:34.151Z,15.23
2018-12-27T02:59:01.623Z,16.87
2018-12-27T03:01:30.403Z,11.30
2018-12-27T03:03:57.772Z,14.57
2018-12-27T03:06:25.216Z,15.20
2018-12-27T03:08:54.742Z,17.07
2018-12-27T03:11:29.473Z,18.70
2018-12-27T03:13:59.424Z,17.50
2018-12-27T03:16:28.751Z,14.40
2018-12-27T03:18:56.224Z,13.27
2018-12-27T03:21:23.772Z,12.47
2018-12-27T03:23:52.272Z,14.57
2018-12-27T03:26:20.971Z,14.93
2018-12-27T03:28:48.454Z,10.40
2018-12-27T03:31:15.888Z,14.57
2018-12-27T03:33:43.389Z,16.23
2018-12-27T03:36:10.872Z,12.43
2018-12-27T03:38:38.329Z,15.57
2018-12-27T03:41:05.655Z,11.77
2018-12-27T03:43:36.493Z,13.73
2018-12-27T03:46:05.232Z,15.87
2018-12-27T03:48:32.694Z,11.27
2018-12-27T03:51:00.136Z,14.10
2018-12-27T03:53:27.617Z,14.33
2018-12-27T03:55:55.064Z,12.00
2018-12-27T03:58:22.530Z,12.03
2018-12-27T04:00:49.938Z,13.63
2018-12-27T04:03:23.033Z,14.23
2018-12-27T04:05:50.522Z,9.30
2018-12-27T04:08:17.888Z,10.80
2018-12-27T04:10:45.313Z,11.40
2018-12-27T04:13:12.800Z,15.93
2018-12-27T04:15:40.264Z,14.00
2018-12-27T04:18:07.698Z,10.77
2018-12-27T04:20:35.128Z,13.23
2018-12-27T04:23:02.616Z,14.70
2018-12-27T04:25:30.134Z,12.77
2018-12-27T04:27:58.600Z,11.70
2018-12-27T04:30:26.099Z,12.30
2018-12-27T04:32:54.489Z,11.67
2018-12-27T04:35:23.004Z,17.97
2018-12-27T04:37:50.456Z,12.50
2018-12-27T04:40:17.952Z,12.20
2018-12-27T04:42:45.619Z,13.93
2018-12-27T04:45:13.066Z,17.30
2018-12-27T04:47:40.529Z,7.20
2018-12-27T04:50:07.874Z,17.70
2018-12-27T04:52:35.300Z,13.57
2018-12-27T04:55:02.768Z,10.80
2018-12-27T04:57:30.261Z,13.40
2018-12-27T04:59:57.718Z,14.93
2018-12-27T05:02:25.172Z,14.00
2018-12-27T05:04:52.505Z,12.83
2018-12-27T05:07:19.985Z,13.33
2018-12-27T05:09:47.470Z,12.50
2018-12-27T05:12:14.851Z,15.13
2018-12-27T05:14:42.415Z,17.60
2018-12-27T05:17:09.772Z,10.47
2018-12-27T05:19:37.245Z,11.47
2018-12-27T05:22:04.615Z,15.47
2018-12-27T05:24:32.044Z,16.30
2018-12-27T05:26:59.527Z,15.87
2018-12-27T05:29:26.928Z,15.80
2018-12-27T05:31:54.386Z,12.43
2018-12-27T05:34:26.173Z,14.43
2018-12-27T05:36:51.152Z,16.73
2018-12-27T05:39:18.606Z,14.83
2018-12-27T05:41:45.985Z,11.47
2018-12-27T05:44:13.457Z,12.20
2018-12-27T05:46:40.856Z,11.40
2018-12-27T05:49:08.448Z,13.33
2018-12-27T05:51:35.830Z,9.73
2018-12-27T05:54:03.352Z,11.33
2018-12-27T05:56:31.090Z,12.87
2018-12-27T05:58:58.567Z,13.67
2018-12-27T06:01:26.030Z,14.43
2018-12-27T06:03:53.411Z,14.67
2018-12-27T06:06:20.867Z,13.87
2018-12-27T06:08:48.324Z,14.83
2018-12-27T06:11:15.704Z,13.20
2018-12-27T06:13:43.244Z,12.33
2018-12-27T06:16:10.722Z,15.73
2018-12-27T06:18:38.230Z,11.87
2018-12-27T06:21:05.722Z,13.70
2018-12-27T06:23:33.197Z,11.43
2018-12-27T06:26:00.679Z,11.03
2018-12-27T06:28:28.141Z,11.20
2018-12-27T06:30:55.520Z,10.43
2018-12-27T06:33:22.975Z,9.57
2018-12-27T06:35:50.332Z,11.93
2018-12-27T06:38:17.803Z,14.10
2018-12-27T06:40:45.445Z,11.77
2018-12-27T06:43:12.869Z,15.40
2018-12-27T06:45:40.346Z,12.07
2018-12-27T06:48:07.937Z,13.60
2018-12-27T06:50:35.403Z,11.67
2018-12-27T06:53:02.862Z,7.83
2018-12-27T06:55:30.416Z,11.80
2018-12-27T06:57:57.777Z,11.17
2018-12-27T07:00:25.241Z,11.17
2018-12-27T07:02:52.706Z,11.80
2018-12-27T07:05:20.173Z,14.37
2018-12-27T07:07:47.620Z,12.87
2018-12-27T07:10:15.001Z,9.50
2018-12-27T07:12:42.381Z,11.23
2018-12-27T07:15:09.859Z,14.37
2018-12-27T07:17:37.213Z,11.23
2018-12-27T07:20:04.651Z,9.97
2018-12-27T07:22:32.213Z,14.87
2018-12-27T07:24:59.589Z,14.57
2018-12-27T07:27:27.051Z,12.30
2018-12-27T07:29:54.435Z,8.83
2018-12-27T07:32:21.940Z,10.90
2018-12-27T07:34:56.298Z,9.63
2018-12-27T07:37:18.653Z,10.17
2018-12-27T07:39:45.998Z,12.13
2018-12-27T07:42:13.373Z,11.00
2018-12-27T07:44:40.719Z,11.93
2018-12-27T07:47:08.175Z,11.00
2018-12-27T07:49:35.644Z,24.57
2018-12-27T07:52:02.989Z,12.40
2018-12-27T07:54:30.368Z,9.67
2018-12-27T07:56:57.836Z,14.00
2018-12-27T07:59:25.295Z,11.70
2018-12-27T08:01:52.734Z,11.33
2018-12-27T08:04:20.101Z,12.63
2018-12-27T08:06:47.953Z,15.33
2018-12-27T08:09:15.417Z,14.63
2018-12-27T08:11:42.866Z,15.80
2018-12-27T08:14:10.206Z,10.97
2018-12-27T08:16:37.643Z,10.87
2018-12-27T08:19:05.091Z,11.80
2018-12-27T08:21:32.668Z,16.13
2018-12-27T08:24:00.117Z,11.43
2018-12-27T08:26:27.563Z,14.57
2018-12-27T08:28:56.693Z,14.00
2018-12-27T08:31:24.246Z,14.00
2018-12-27T08:33:51.727Z,14.47
2018-12-27T08:36:19.103Z,10.20
2018-12-27T08:38:46.453Z,11.60
2018-12-27T08:41:13.897Z,12.03
2018-12-27T08:43:41.260Z,13.13
2018-12-27T08:46:08.721Z,11.30
2018-12-27T08:48:36.162Z,12.27
2018-12-27T08:51:03.508Z,12.37
2018-12-27T08:53:30.892Z,10.10
2018-12-27T08:55:58.345Z,14.70
2018-12-27T08:58:25.711Z,18.47
2018-12-27T09:00:53.184Z,13.23
2018-12-27T09:03:20.638Z,13.30
2018-12-27T09:05:48.101Z,12.63
2018-12-27T09:08:15.578Z,14.87
2018-12-27T09:10:43.045Z,12.80
2018-12-27T09:13:10.415Z,15.43
2018-12-27T09:15:37.882Z,13.10
2018-12-27T09:18:05.310Z,11.47
2018-12-27T09:20:32.695Z,12.03
2018-12-27T09:23:00.126Z,11.00
2018-12-27T09:25:27.559Z,14.30
2018-12-27T09:27:55.044Z,11.13
2018-12-27T09:30:22.521Z,10.40
2018-12-27T09:32:49.970Z,18.23
2018-12-27T09:35:17.422Z,11.60
2018-12-27T09:37:44.853Z,12.30
2018-12-27T09:40:12.334Z,15.03
2018-12-27T09:42:39.819Z,10.93
2018-12-27T09:45:07.339Z,13.50
2018-12-27T09:47:34.684Z,10.63
2018-12-27T09:50:02.028Z,18.77
2018-12-27T09:52:29.529Z,15.83
2018-12-27T09:54:56.892Z,15.63
2018-12-27T09:57:24.340Z,14.93
2018-12-27T09:59:51.826Z,14.13
2018-12-27T10:02:19.371Z,12.30
2018-12-27T10:04:46.717Z,12.10
2018-12-27T10:07:14.094Z,11.17
2018-12-27T10:09:41.556Z,11.47
2018-12-27T10:12:08.919Z,12.20
2018-12-27T10:14:36.386Z,12.90
2018-12-27T10:17:03.886Z,15.10
2018-12-27T10:19:31.418Z,14.10
2018-12-27T10:21:58.766Z,11.13
2018-12-27T10:24:26.149Z,11.73
2018-12-27T10:26:53.488Z,9.43
2018-12-27T10:29:20.945Z,16.00
2018-12-27T10:31:48.468Z,13.43
2018-12-27T10:34:15.910Z,12.33
2018-12-27T10:36:43.400Z,10.33
2018-12-27T10:39:12.168Z,12.13
2018-12-27T10:41:39.628Z,12.60
2018-12-27T10:44:07.089Z,14.30
2018-12-27T10:46:34.546Z,20.63
2018-12-27T10:49:01.885Z,21.53
2018-12-27T10:51:29.428Z,19.07
2018-12-27T10:53:56.878Z,24.57
2018-12-27T10:56:24.311Z,21.50
2018-12-27T10:58:51.800Z,19.40
2018-12-27T11:01:19.237Z,21.43
2018-12-27T11:03:46.700Z,15.10
2018-12-27T11:06:14.176Z,19.77
2018-12-27T11:08:41.618Z,19.80
2018-12-27T11:11:08.967Z,17.53
2018-12-27T11:13:36.353Z,13.30
2018-12-27T11:16:03.845Z,17.43
2018-12-27T11:18:31.290Z,11.30
2018-12-27T11:20:59.161Z,15.33
2018-12-27T11:23:26.651Z,12.20
2018-12-27T11:25:54.086Z,11.83
2018-12-27T11:28:21.467Z,12.77
2018-12-27T11:30:48.941Z,12.77
2018-12-27T11:33:16.360Z,12.13
2018-12-27T11:35:43.753Z,14.97
2018-12-27T11:38:11.192Z,15.30
2018-12-27T11:40:38.624Z,22.73
2018-12-27T11:43:06.197Z,24.17
2018-12-27T11:45:33.565Z,27.33
2018-12-27T11:48:00.921Z,26.57
2018-12-27T11:50:28.369Z,26.07
2018-12-27T11:52:55.746Z,24.43
2018-12-27T11:55:23.106Z,24.73
2018-12-27T11:57:50.540Z,16.87
2018-12-27T12:00:18.125Z,17.50
2018-12-27T12:02:45.482Z,15.73
2018-12-27T12:05:12.924Z,19.70
2018-12-27T12:07:40.303Z,24.23
2018-12-27T12:10:07.807Z,19.27
2018-12-27T12:12:35.297Z,18.87
2018-12-27T12:15:03.029Z,18.40
2018-12-27T12:17:30.526Z,17.50
2018-12-27T12:19:57.956Z,19.70
2018-12-27T12:22:25.454Z,15.30
2018-12-27T12:24:52.957Z,12.17
2018-12-27T12:27:20.413Z,11.17
2018-12-27T12:29:47.872Z,14.63
2018-12-27T12:32:15.345Z,13.37
2018-12-27T12:34:42.737Z,12.30
2018-12-27T12:37:14.064Z,26.13
2018-12-27T12:39:39.646Z,16.10
2018-12-27T12:42:07.117Z,12.37
2018-12-27T12:44:34.573Z,11.07
2018-12-27T12:47:02.168Z,9.97
2018-12-27T12:49:29.575Z,13.10
2018-12-27T12:51:57.035Z,12.87
2018-12-27T12:54:24.409Z,13.97
2018-12-27T12:56:51.859Z,13.33
2018-12-27T12:59:19.377Z,10.03
2018-12-27T13:04:42.101Z,17.43
2018-12-27T13:07:09.523Z,15.80
2018-12-27T13:09:37.749Z,14.13
2018-12-27T13:12:05.242Z,13.53
2018-12-27T13:14:32.694Z,10.57
2018-12-27T13:17:00.210Z,11.67
2018-12-27T13:19:27.941Z,12.30
2018-12-27T13:21:55.408Z,18.37
2018-12-27T13:24:23.356Z,12.50
2018-12-27T13:26:50.775Z,10.20
2018-12-27T13:29:18.162Z,14.10
2018-12-27T13:31:46.312Z,15.20
2018-12-27T13:34:13.845Z,10.43
2018-12-27T13:36:41.396Z,14.37
2018-12-27T13:39:08.939Z,13.93
2018-12-27T13:41:36.473Z,13.87
2018-12-27T13:44:03.949Z,11.80
2018-12-27T13:46:31.398Z,15.43
2018-12-27T13:48:58.786Z,15.47
2018-12-27T13:51:26.263Z,14.30
2018-12-27T13:53:53.750Z,18.00
2018-12-27T13:56:21.224Z,12.50
2018-12-27T13:58:48.584Z,16.20
2018-12-27T14:01:16.052Z,14.43
2018-12-27T14:03:43.440Z,10.90
2018-12-27T14:06:10.920Z,12.80
2018-12-27T14:08:38.436Z,16.23
2018-12-27T14:11:05.904Z,13.37
2018-12-27T14:13:33.340Z,10.07
2018-12-27T14:16:00.698Z,14.40
2018-12-27T14:18:28.153Z,14.67
2018-12-27T14:20:55.594Z,17.43
2018-12-27T14:23:22.962Z,20.87
2018-12-27T14:25:50.427Z,22.00
2018-12-27T14:28:18.000Z,15.97
2018-12-27T14:30:45.506Z,15.53
2018-12-27T14:33:12.886Z,15.63
2018-12-27T14:35:40.266Z,18.53
2018-12-27T14:38:07.724Z,14.13
2018-12-27T14:40:35.214Z,15.50
2018-12-27T14:43:02.622Z,15.73
2018-12-27T14:45:30.010Z,15.97
2018-12-27T14:47:57.477Z,14.47
2018-12-27T14:50:24.983Z,14.23
2018-12-27T14:52:52.526Z,21.27
2018-12-27T14:55:20.004Z,16.57
2018-12-27T14:57:47.474Z,12.20
2018-12-27T15:00:14.940Z,13.27
2018-12-27T15:02:42.405Z,17.57
2018-12-27T15:05:09.888Z,13.13
2018-12-27T15:07:37.250Z,22.90
2018-12-27T15:10:05.999Z,18.47
2018-12-27T15:12:33.450Z,10.90
2018-12-27T15:15:00.966Z,21.67
2018-12-27T15:17:28.382Z,16.97
2018-12-27T15:19:55.915Z,16.33
2018-12-27T15:22:23.354Z,19.17
2018-12-27T15:24:50.804Z,19.43
2018-12-27T15:27:18.261Z,20.57
2018-12-27T15:29:45.718Z,26.90
2018-12-27T15:32:13.237Z,22.33
2018-12-27T15:34:40.697Z,22.67
2018-12-27T15:37:08.417Z,21.83
2018-12-27T15:39:35.796Z,20.27
2018-12-27T15:42:03.318Z,20.50
2018-12-27T15:44:30.814Z,20.07
2018-12-27T15:46:58.287Z,18.20
2018-12-27T15:49:25.779Z,27.00
2018-12-27T15:51:53.243Z,16.70
2018-12-27T15:54:21.805Z,25.80
2018-12-27T15:56:49.562Z,18.97
2018-12-27T15:59:16.987Z,20.27
2018-12-27T16:01:44.824Z,22.80
2018-12-27T16:04:12.265Z,16.80
2018-12-27T16:06:39.693Z,19.87
2018-12-27T16:09:07.192Z,24.60
2018-12-27T16:11:34.569Z,21.03
2018-12-27T16:14:02.043Z,20.90
2018-12-27T16:16:29.521Z,16.60
2018-12-27T16:18:56.973Z,21.60
2018-12-27T16:21:24.487Z,22.37
2018-12-27T16:23:52.004Z,29.70
2018-12-27T16:26:19.465Z,20.50
2018-12-27T16:28:46.927Z,21.50
2018-12-27T16:31:14.300Z,26.00
2018-12-27T16:33:41.844Z,26.83
2018-12-27T16:36:09.302Z,21.57
2018-12-27T16:38:36.881Z,19.57
2018-12-27T16:41:04.340Z,22.40
2018-12-27T16:43:31.705Z,24.13
2018-12-27T16:45:59.154Z,22.17
2018-12-27T16:48:26.637Z,26.40
2018-12-27T16:50:54.028Z,24.37
2018-12-27T16:53:21.511Z,27.57
2018-12-27T16:55:48.864Z,24.83
2018-12-27T16:58:16.248Z,25.17
2018-12-27T17:00:43.724Z,22.40
2018-12-27T17:03:11.190Z,25.13
2018-12-27T17:05:38.651Z,17.13
2018-12-27T17:08:07.557Z,20.10
2018-12-27T17:10:35.032Z,27.10
2018-12-27T17:13:02.400Z,23.53
2018-12-27T17:15:31.084Z,22.50
2018-12-27T17:17:58.536Z,16.13
2018-12-27T17:20:26.011Z,21.27
2018-12-27T17:22:53.472Z,20.10
2018-12-27T17:25:20.973Z,18.20
2018-12-27T17:27:48.434Z,23.23
2018-12-27T17:30:15.786Z,26.40
2018-12-27T17:32:43.191Z,18.30
2018-12-27T17:35:10.679Z,22.47
2018-12-27T17:37:38.632Z,23.93
2018-12-27T17:40:06.402Z,18.40
2018-12-27T17:42:36.398Z,25.87
2018-12-27T17:45:04.231Z,20.87
2018-12-27T17:47:31.739Z,26.77
2018-12-27T17:49:59.244Z,23.17
2018-12-27T17:52:30.186Z,16.53
2018-12-27T17:54:57.059Z,18.30
2018-12-27T17:57:26.676Z,22.27
2018-12-27T17:59:54.194Z,21.63
2018-12-27T18:02:21.682Z,20.43
2018-12-27T18:04:49.158Z,19.50
2018-12-27T18:07:16.760Z,22.40
2018-12-27T18:09:45.749Z,21.73
2018-12-27T18:12:13.328Z,13.40
2018-12-27T18:14:40.808Z,18.27
2018-12-27T18:17:08.366Z,17.73
2018-12-27T18:19:35.855Z,20.97
2018-12-27T18:22:03.250Z,20.07
2018-12-27T18:24:32.629Z,17.57
2018-12-27T18:27:02.746Z,13.97
2018-12-27T18:29:30.173Z,17.57
2018-12-27T18:31:57.731Z,19.57
2018-12-27T18:34:26.328Z,20.30
2018-12-27T18:36:53.833Z,22.10
2018-12-27T18:39:21.458Z,17.87
2018-12-27T18:41:56.569Z,20.40
2018-12-27T18:44:24.014Z,21.73
2018-12-27T18:46:51.490Z,21.13
2018-12-27T18:49:20.762Z,20.57
2018-12-27T18:51:48.260Z,13.67
2018-12-27T18:54:18.277Z,18.17
2018-12-27T18:56:45.830Z,20.13
2018-12-27T18:59:13.295Z,19.00
2018-12-27T19:01:40.786Z,18.10
2018-12-27T19:04:08.311Z,14.40
2018-12-27T19:06:35.791Z,17.93
2018-12-27T19:09:05.861Z,16.57
2018-12-27T19:12:10.222Z,19.23
2018-12-27T19:14:37.739Z,20.80
2018-12-27T19:17:06.619Z,21.90
2018-12-27T19:19:34.162Z,17.87
2018-12-27T19:22:23.038Z,17.77
2018-12-27T19:24:50.549Z,20.63
2018-12-27T19:27:18.587Z,28.40
2018-12-27T19:29:45.951Z,23.87
2018-12-27T19:32:13.311Z,21.37
2018-12-27T19:34:40.825Z,27.53
2018-12-27T19:37:08.348Z,16.53
2018-12-27T19:39:35.920Z,26.07
2018-12-27T19:42:03.488Z,25.97
2018-12-27T19:44:30.993Z,28.00
2018-12-27T19:46:58.482Z,33.37
2018-12-27T19:49:25.949Z,24.73
2018-12-27T19:51:53.469Z,22.87
2018-12-27T19:54:20.892Z,27.83
2018-12-27T19:56:48.313Z,14.30
2018-12-27T19:59:15.802Z,27.47
2018-12-27T20:01:43.317Z,26.57
2018-12-27T20:04:10.786Z,29.17
2018-12-27T20:06:40.147Z,21.50
2018-12-27T20:09:08.073Z,20.70
2018-12-27T20:11:39.639Z,19.53
2018-12-27T20:14:10.187Z,22.07
2018-12-27T20:16:37.589Z,20.23
2018-12-27T20:19:05.208Z,18.47
2018-12-27T20:21:37.202Z,22.37
2018-12-27T20:24:06.984Z,19.83
2018-12-27T20:26:35.951Z,23.00
2018-12-27T20:29:03.449Z,21.23
2018-12-27T20:31:33.160Z,18.93
2018-12-27T20:34:03.872Z,17.63
2018-12-27T20:36:33.715Z,18.13
2018-12-27T20:39:03.652Z,18.57
2018-12-27T20:41:33.942Z,19.67
2018-12-27T20:44:01.354Z,22.70
2018-12-27T20:46:29.002Z,15.93
2018-12-27T20:48:58.522Z,17.47
2018-12-27T20:51:26.040Z,20.63
2018-12-27T20:53:53.546Z,28.20
2018-12-27T20:56:22.966Z,23.37
2018-12-27T20:58:50.432Z,24.23
2018-12-27T21:01:17.922Z,19.07
2018-12-27T21:03:45.468Z,21.20
2018-12-27T21:06:13.002Z,25.53
2018-12-27T21:08:40.516Z,18.53
2018-12-27T21:11:07.998Z,16.47
2018-12-27T21:13:36.583Z,35.80
2018-12-27T21:16:06.890Z,28.43
2018-12-27T21:18:36.143Z,23.53
2018-12-27T21:21:03.647Z,25.77
2018-12-27T21:23:31.102Z,21.43
2018-12-27T21:26:03.327Z,14.97
2018-12-27T21:28:33.854Z,21.60
2018-12-27T21:31:04.484Z,22.87
2018-12-27T21:33:31.952Z,20.13
2018-12-27T21:35:59.448Z,18.13
2018-12-27T21:38:26.978Z,22.20
2018-12-27T21:40:54.438Z,17.13
2018-12-27T21:43:23.562Z,17.27
2018-12-27T21:45:52.384Z,19.83
2018-12-27T21:48:19.966Z,19.63
2018-12-27T21:50:50.379Z,18.07
2018-12-27T21:53:23.061Z,25.37
2018-12-27T21:55:52.673Z,20.50
2018-12-27T21:58:20.142Z,21.17
2018-12-27T22:00:51.292Z,21.77
2018-12-27T22:03:18.761Z,22.83
2018-12-27T22:05:47.457Z,16.40
2018-12-27T22:08:14.937Z,19.33
2018-12-27T22:10:42.431Z,16.30
2018-12-27T22:13:09.895Z,23.93
2018-12-27T22:15:37.335Z,21.83
2018-12-27T22:18:04.800Z,18.10
2018-12-27T22:20:32.284Z,17.67
2018-12-27T22:22:59.807Z,20.63
2018-12-27T22:25:27.230Z,16.93
2018-12-27T22:27:55.635Z,22.97
2018-12-27T22:30:22.994Z,23.17
2018-12-27T22:32:50.468Z,20.97
2018-12-27T22:35:17.945Z,19.30
2018-12-27T22:37:45.407Z,20.40
2018-12-27T22:40:12.881Z,23.67
2018-12-27T22:42:40.366Z,15.73
2018-12-27T22:45:07.770Z,20.93
2018-12-27T22:47:35.226Z,21.23
2018-12-27T22:50:02.602Z,17.73
2018-12-27T22:52:30.094Z,20.53
2018-12-27T22:54:57.503Z,16.40
2018-12-27T22:57:24.944Z,16.20
2018-12-27T22:59:52.420Z,17.20
2018-12-27T23:02:19.869Z,20.60
2018-12-27T23:04:47.322Z,15.90
2018-12-27T23:07:14.793Z,21.50
2018-12-27T23:09:42.220Z,15.47
2018-12-27T23:12:09.607Z,22.10
2018-12-27T23:14:37.078Z,18.33
2018-12-27T23:17:04.523Z,24.60
2018-12-27T23:19:31.896Z,19.90
2018-12-27T23:21:59.399Z,22.17
2018-12-27T23:24:26.892Z,21.53
2018-12-27T23:26:54.327Z,15.77
2018-12-27T23:29:21.812Z,21.17
2018-12-27T23:31:49.284Z,21.13
2018-12-27T23:34:16.745Z,20.93
2018-12-27T23:36:44.123Z,19.30
2018-12-27T23:39:11.601Z,23.53
2018-12-27T23:41:39.081Z,19.60
2018-12-27T23:44:06.533Z,22.03
2018-12-27T23:46:34.039Z,17.10
2018-12-27T23:49:01.515Z,19.27
2018-12-27T23:51:28.950Z,19.63
2018-12-27T23:53:56.326Z,25.27
2018-12-27T23:56:23.772Z,20.23
2018-12-27T23:58:51.137Z,24.40
